Time;durP1;ratioP1;P1;durP2;ratioP2;P2;SDS_P1;SDS_P2;PMS_P1;PMS_P2;Temp;Humidity;BMP_temperature;BMP_pressure;BME280_temperature;BME280_humidity;BME280_pressure;Samples;Min_cycle;Max_cycle;Signal;HPM_P1;HPM_P2
2023/08/03 00:02:10;;;;;;;;;;;;;;;;;;5070605;28;19921;-64
2023/08/03 00:04:35;;;;;;;;;;;;;;;;;;5066866;28;20277;-64
2023/08/03 00:07:01;;;;;;;;;;;;;;;;;;5069581;28;19964;-64
2023/08/03 00:09:27;;;;;;;;;;;;;;;;;;5072261;28;19951;-65
2023/08/03 00:11:53;;;;;;;;;;;;;;;;;;5069323;28;20332;-64
2023/08/03 00:14:19;;;;;;;;;;;;;;;;;;5070631;28;20015;-64
2023/08/03 00:16:45;;;;;;;;;;;;;;;;;;5071186;28;19931;-64
2023/08/03 00:19:11;;;;;;;;;;;;;;;;;;5071131;28;20354;-64
2023/08/03 00:21:37;;;;;;;;;;;;;;;;;;5072188;28;19927;-64
2023/08/03 00:24:03;;;;;;;;;;;;;;;;;;5069196;28;20502;-64
2023/08/03 00:26:29;;;;;;;;;;;;;;;;;;5069631;28;19998;-63
2023/08/03 00:28:55;;;;;;;;;;;;;;;;;;5070229;28;19939;-63
2023/08/03 00:31:21;;;;;;;;;;;;;;;;;;5071074;28;19932;-64
2023/08/03 00:33:47;;;;;;;;;;;;;;;;;;5070929;28;20294;-64
2023/08/03 00:36:13;;;;;;;;;;;;;;;;;;5071174;28;19925;-63
2023/08/03 00:38:39;;;;;;;;;;;;;;;;;;5070395;28;20407;-63
2023/08/03 00:41:05;;;;;;;;;;;;;;;;;;5072942;28;19925;-64
2023/08/03 00:43:30;;;;;;;;;;;;;;;;;;5070780;28;20577;-64
2023/08/03 00:45:56;;;;;;;;;;;;;;;;;;5070382;28;19932;-63
2023/08/03 00:48:22;;;;;;;;;;;;;;;;;;5069946;28;20012;-64
2023/08/03 00:50:48;;;;;;;;;;;;;;;;;;5070924;28;19935;-64
2023/08/03 00:53:14;;;;;;;;;;;;;;;;;;5070895;28;19955;-64
2023/08/03 00:55:40;;;;;;;;;;;;;;;;;;5045909;28;19930;-64
2023/08/03 00:58:06;;;;;;;;;;;;;;;;;;5049497;28;20295;-64
2023/08/03 01:00:32;;;;;;;;;;;;;;;;;;5069306;28;20384;-64
2023/08/03 01:02:58;;;;;;;;;;;;;;;;;;5070717;28;19968;-64
2023/08/03 01:05:25;;;;;;;;;;;;;;;;;;5052914;28;20010;-63
2023/08/03 01:07:51;;;;;;;;;;;;;;;;;;5072001;28;19994;-63
2023/08/03 01:10:17;;;;;;;;;;;;;;;;;;5073036;28;20609;-63
2023/08/03 01:12:43;;;;;;;;;;;;;;;;;;5071739;28;19924;-63
2023/08/03 01:15:09;;;;;;;;;;;;;;;;;;5073174;28;20408;-63
2023/08/03 01:17:35;;;;;;;;;;;;;;;;;;5054186;28;19924;-63
2023/08/03 01:20:01;;;;;;;;;;;;;;;;;;5075913;28;20231;-63
2023/08/03 01:22:27;;;;;;;;;;;;;;;;;;5054590;28;20278;-63
2023/08/03 01:24:52;;;;;;;;;;;;;;;;;;5071784;28;19924;-64
2023/08/03 01:27:18;;;;;;;;;;;;;;;;;;5071782;28;19932;-64
2023/08/03 01:29:44;;;;;;;;;;;;;;;;;;5069104;28;19956;-64
2023/08/03 01:32:10;;;;;;;;;;;;;;;;;;5073754;28;19925;-64
2023/08/03 01:34:36;;;;;;;;;;;;;;;;;;5072054;28;19928;-64
2023/08/03 01:37:02;;;;;;;;;;;;;;;;;;5072947;28;20629;-64
2023/08/03 01:39:28;;;;;;;;;;;;;;;;;;5069485;28;20333;-64
2023/08/03 01:41:54;;;;;;;;;;;;;;;;;;5072591;28;19967;-64
2023/08/03 01:44:20;;;;;;;;;;;;;;;;;;5071977;28;19920;-64
2023/08/03 01:46:46;;;;;;;;;;;;;;;;;;5071514;28;19925;-64
2023/08/03 01:49:12;;;;;;;;;;;;;;;;;;5071471;28;19920;-64
2023/08/03 01:51:40;;;;;;;;;;;;;;;;;;5071207;28;19978;-64
2023/08/03 01:54:06;;;;;;;;;;;;;;;;;;5072790;28;19947;-64
2023/08/03 01:56:32;;;;;;;;;;;;;;;;;;5073663;28;19920;-64
2023/08/03 01:58:58;;;;;;;;;;;;;;;;;;5071643;28;19932;-63
2023/08/03 02:01:23;;;;;;;;;;;;;;;;;;5069086;28;19952;-63
2023/08/03 02:03:49;;;;;;;;;;;;;;;;;;5072995;28;21545;-63
2023/08/03 02:06:15;;;;;;;;;;;;;;;;;;5074775;28;19963;-63
2023/08/03 02:08:41;;;;;;;;;;;;;;;;;;5071755;28;20579;-63
2023/08/03 02:11:07;;;;;;;;;;;;;;;;;;5075562;28;20036;-63
2023/08/03 02:13:33;;;;;;;;;;;;;;;;;;5073551;28;19920;-63
2023/08/03 02:15:59;;;;;;;;;;;;;;;;;;5054699;28;19921;-63
2023/08/03 02:18:25;;;;;;;;;;;;;;;;;;5073485;28;19921;-63
2023/08/03 02:20:50;;;;;;;;;;;;;;;;;;5073459;28;19928;-63
2023/08/03 02:23:16;;;;;;;;;;;;;;;;;;5071916;28;19960;-63
2023/08/03 02:25:42;;;;;;;;;;;;;;;;;;5073279;28;19999;-63
2023/08/03 02:28:08;;;;;;;;;;;;;;;;;;5072139;28;20277;-63
2023/08/03 02:30:36;;;;;;;;;;;;;;;;;;5073952;28;19928;-63
2023/08/03 02:33:02;;;;;;;;;;;;;;;;;;5074344;28;19924;-63
2023/08/03 02:35:28;;;;;;;;;;;;;;;;;;5073810;28;19929;-63
2023/08/03 02:37:54;;;;;;;;;;;;;;;;;;5071550;28;20083;-64
2023/08/03 02:40:20;;;;;;;;;;;;;;;;;;5074016;28;19931;-64
2023/08/03 02:42:46;;;;;;;;;;;;;;;;;;5055868;28;19924;-64
2023/08/03 02:45:12;;;;;;;;;;;;;;;;;;5071280;28;20316;-64
2023/08/03 02:47:38;;;;;;;;;;;;;;;;;;5073622;28;19924;-64
2023/08/03 02:50:04;;;;;;;;;;;;;;;;;;5073942;28;19924;-64
2023/08/03 02:52:29;;;;;;;;;;;;;;;;;;5073769;28;19988;-64
2023/08/03 02:54:55;;;;;;;;;;;;;;;;;;5073698;28;20417;-64
2023/08/03 02:57:21;;;;;;;;;;;;;;;;;;5073696;28;19921;-64
2023/08/03 02:59:47;;;;;;;;;;;;;;;;;;5073440;28;20289;-64
2023/08/03 03:02:13;;;;;;;;;;;;;;;;;;5069990;28;19924;-64
2023/08/03 03:04:39;;;;;;;;;;;;;;;;;;5072183;28;19943;-64
2023/08/03 03:07:05;;;;;;;;;;;;;;;;;;5073344;28;20015;-64
2023/08/03 03:09:31;;;;;;;;;;;;;;;;;;5073501;28;19928;-64
2023/08/03 03:11:57;;;;;;;;;;;;;;;;;;5071580;28;20381;-64
2023/08/03 03:14:23;;;;;;;;;;;;;;;;;;5069565;28;19921;-64
2023/08/03 03:16:49;;;;;;;;;;;;;;;;;;5067721;28;19928;-64
2023/08/03 03:19:15;;;;;;;;;;;;;;;;;;5072882;28;20378;-64
2023/08/03 03:21:41;;;;;;;;;;;;;;;;;;5055142;28;19928;-64
2023/08/03 03:24:07;;;;;;;;;;;;;;;;;;5073170;28;20008;-64
2023/08/03 03:26:33;;;;;;;;;;;;;;;;;;5072105;28;19920;-64
2023/08/03 03:28:58;;;;;;;;;;;;;;;;;;5068062;28;19930;-64
2023/08/03 03:31:24;;;;;;;;;;;;;;;;;;5072968;28;19928;-64
2023/08/03 03:33:50;;;;;;;;;;;;;;;;;;5073002;28;19920;-64
2023/08/03 03:36:16;;;;;;;;;;;;;;;;;;5072508;28;19920;-64
2023/08/03 03:38:42;;;;;;;;;;;;;;;;;;5072593;28;19920;-64
2023/08/03 03:41:08;;;;;;;;;;;;;;;;;;5072846;28;19932;-64
2023/08/03 03:43:34;;;;;;;;;;;;;;;;;;5072912;28;19967;-64
2023/08/03 03:46:02;;;;;;;;;;;;;;;;;;5070552;28;19966;-64
2023/08/03 03:48:27;;;;;;;;;;;;;;;;;;5072239;28;19969;-64
2023/08/03 03:50:53;;;;;;;;;;;;;;;;;;5071537;28;19924;-64
2023/08/03 03:53:19;;;;;;;;;;;;;;;;;;5062343;28;19958;-65
2023/08/03 03:55:45;;;;;;;;;;;;;;;;;;5071768;28;19978;-64
2023/08/03 03:58:11;;;;;;;;;;;;;;;;;;5071687;28;19920;-63
2023/08/03 04:00:40;;;;;;;;;;;;;;;;;;5053412;28;19927;-64
2023/08/03 04:03:07;;;;;;;;;;;;;;;;;;5055908;28;20400;-64
2023/08/03 04:05:33;;;;;;;;;;;;;;;;;;5066898;28;19920;-64
2023/08/03 04:07:59;;;;;;;;;;;;;;;;;;5070613;28;20023;-64
2023/08/03 04:10:25;;;;;;;;;;;;;;;;;;5050916;28;20066;-64
2023/08/03 04:12:51;;;;;;;;;;;;;;;;;;5051139;28;20270;-64
2023/08/03 04:15:17;;;;;;;;;;;;;;;;;;5048930;28;19932;-64
2023/08/03 04:17:45;;;;;;;;;;;;;;;;;;5071152;28;19946;-64
2023/08/03 04:20:11;;;;;;;;;;;;;;;;;;5051782;28;19920;-64
2023/08/03 04:22:37;;;;;;;;;;;;;;;;;;5051204;28;19932;-64
2023/08/03 04:25:03;;;;;;;;;;;;;;;;;;5071854;28;19942;-63
2023/08/03 04:27:29;;;;;;;;;;;;;;;;;;5070952;28;19925;-63
2023/08/03 04:29:55;;;;;;;;;;;;;;;;;;5070140;28;19978;-63
2023/08/03 04:32:21;;;;;;;;;;;;;;;;;;5071771;28;19963;-64
2023/08/03 04:34:47;;;;;;;;;;;;;;;;;;5071761;28;19931;-64
2023/08/03 04:37:13;;;;;;;;;;;;;;;;;;5069518;28;19942;-64
2023/08/03 04:39:39;;;;;;;;;;;;;;;;;;5072008;28;19936;-64
2023/08/03 04:42:04;;;;;;;;;;;;;;;;;;5071918;28;19989;-64
2023/08/03 04:44:30;;;;;;;;;;;;;;;;;;5071321;28;19926;-64
2023/08/03 04:46:56;;;;;;;;;;;;;;;;;;5071833;28;19921;-64
2023/08/03 04:49:22;;;;;;;;;;;;;;;;;;5071277;28;19929;-64
2023/08/03 04:51:49;;;;;;;;;;;;;;;;;;5085629;23;19954;-61
2023/08/03 04:54:15;;;;;;;;;;;;;;;;;;5049947;28;19925;-61
2023/08/03 04:56:41;;;;;;;;;;;;;;;;;;5051414;28;19925;-60
2023/08/03 04:59:07;;;;;;;;;;;;;;;;;;5044655;28;19921;-62
2023/08/03 05:01:32;;;;;;;;;;;;;;;;;;5047237;28;20432;-61
2023/08/03 05:04:00;;;;;;;;;;;;;;;;;;5020572;28;19924;-61
2023/08/03 05:06:26;;;;;;;;;;;;;;;;;;5049941;28;19928;-61
2023/08/03 05:08:52;;;;;;;;;;;;;;;;;;5044146;28;19921;-61
2023/08/03 05:11:18;;;;;;;;;;;;;;;;;;5049042;28;19933;-61
2023/08/03 05:13:44;;;;;;;;;;;;;;;;;;5028658;28;19968;-61
2023/08/03 05:16:10;;;;;;;;;;;;;;;;;;5033153;28;19929;-61
2023/08/03 05:18:35;;;;;;;;;;;;;;;;;;5052496;28;20008;-60
2023/08/03 05:21:01;;;;;;;;;;;;;;;;;;5050352;28;19925;-60
2023/08/03 05:23:27;;;;;;;;;;;;;;;;;;5049581;28;19959;-61
2023/08/03 05:25:54;;;;;;;;;;;;;;;;;;5049407;28;20278;-61
2023/08/03 05:28:20;;;;;;;;;;;;;;;;;;5050172;28;20556;-61
2023/08/03 05:30:46;;;;;;;;;;;;;;;;;;5049682;28;20059;-61
2023/08/03 05:33:12;;;;;;;;;;;;;;;;;;5051369;28;19963;-60
2023/08/03 05:35:38;;;;;;;;;;;;;;;;;;5050364;28;19925;-61
2023/08/03 05:38:04;;;;;;;;;;;;;;;;;;5034212;28;20442;-61
2023/08/03 05:40:30;;;;;;;;;;;;;;;;;;5050265;28;19921;-61
2023/08/03 05:42:56;;;;;;;;;;;;;;;;;;5049054;28;19921;-61
2023/08/03 05:45:21;;;;;;;;;;;;;;;;;;5050626;28;19928;-61
2023/08/03 05:47:47;;;;;;;;;;;;;;;;;;5050841;28;19932;-60
2023/08/03 05:50:13;;;;;;;;;;;;;;;;;;5050976;28;19947;-61
2023/08/03 05:52:39;;;;;;;;;;;;;;;;;;5052992;28;19921;-61
2023/08/03 05:55:05;;;;;;;;;;;;;;;;;;5019706;28;19929;-60
2023/08/03 05:57:31;;;;;;;;;;;;;;;;;;5048617;28;19931;-60
2023/08/03 05:59:57;;;;;;;;;;;;;;;;;;5031643;28;19924;-60
2023/08/03 06:02:23;;;;;;;;;;;;;;;;;;5051889;28;19942;-60
2023/08/03 06:04:49;;;;;;;;;;;;;;;;;;5036413;28;19929;-60
2023/08/03 06:07:15;;;;;;;;;;;;;;;;;;5052707;28;19929;-60
2023/08/03 06:09:40;;;;;;;;;;;;;;;;;;5033851;28;19951;-61
2023/08/03 06:12:06;;;;;;;;;;;;;;;;;;5054424;28;19932;-60
2023/08/03 06:14:33;;;;;;;;;;;;;;;;;;5032398;28;19927;-61
2023/08/03 06:16:59;;;;;;;;;;;;;;;;;;5017397;28;19921;-61
2023/08/03 06:19:25;;;;;;;;;;;;;;;;;;5053994;28;20291;-61
2023/08/03 06:21:51;;;;;;;;;;;;;;;;;;5048098;28;19932;-60
2023/08/03 06:24:16;;;;;;;;;;;;;;;;;;5047373;28;19924;-61
2023/08/03 06:26:42;;;;;;;;;;;;;;;;;;5051464;28;20018;-60
2023/08/03 06:29:08;;;;;;;;;;;;;;;;;;5051134;28;19928;-61
2023/08/03 06:31:35;;;;;;;;;;;;;;;;;;5046063;28;19932;-60
2023/08/03 06:34:02;;;;;;;;;;;;;;;;;;5051603;28;19927;-61
2023/08/03 06:36:28;;;;;;;;;;;;;;;;;;5032753;28;19935;-61
2023/08/03 06:38:54;;;;;;;;;;;;;;;;;;5050248;28;19951;-61
2023/08/03 06:41:19;;;;;;;;;;;;;;;;;;5048842;28;20329;-60
2023/08/03 06:43:46;;;;;;;;;;;;;;;;;;5049709;28;20305;-61
2023/08/03 06:46:11;;;;;;;;;;;;;;;;;;5051230;28;20292;-61
2023/08/03 06:48:37;;;;;;;;;;;;;;;;;;5052176;28;20015;-61
2023/08/03 06:51:03;;;;;;;;;;;;;;;;;;5052109;28;19935;-61
2023/08/03 06:53:29;;;;;;;;;;;;;;;;;;5051678;28;20384;-61
2023/08/03 06:55:55;;;;;;;;;;;;;;;;;;5053010;28;19932;-61
2023/08/03 06:58:21;;;;;;;;;;;;;;;;;;5041199;28;20442;-61
2023/08/03 07:00:47;;;;;;;;;;;;;;;;;;5046910;28;19928;-61
2023/08/03 07:03:13;;;;;;;;;;;;;;;;;;5047441;28;19968;-61
2023/08/03 07:05:39;;;;;;;;;;;;;;;;;;5029099;28;19921;-61
2023/08/03 07:08:05;;;;;;;;;;;;;;;;;;5034947;28;19925;-61
2023/08/03 07:10:30;;;;;;;;;;;;;;;;;;5034888;28;19925;-61
2023/08/03 07:12:56;;;;;;;;;;;;;;;;;;5035193;28;19921;-61
2023/08/03 07:15:22;;;;;;;;;;;;;;;;;;5052865;28;20011;-61
2023/08/03 07:17:48;;;;;;;;;;;;;;;;;;5043965;28;20002;-61
2023/08/03 07:20:14;;;;;;;;;;;;;;;;;;5044194;28;19921;-62
2023/08/03 07:22:40;;;;;;;;;;;;;;;;;;5049403;28;19920;-61
2023/08/03 07:25:06;;;;;;;;;;;;;;;;;;5049755;28;19921;-61
2023/08/03 07:27:32;;;;;;;;;;;;;;;;;;5051271;28;19925;-61
2023/08/03 07:29:58;;;;;;;;;;;;;;;;;;5052344;28;19944;-61
2023/08/03 07:32:24;;;;;;;;;;;;;;;;;;5028769;28;20294;-61
2023/08/03 07:34:50;;;;;;;;;;;;;;;;;;5052622;28;19920;-61
2023/08/03 07:37:15;;;;;;;;;;;;;;;;;;5052796;28;19925;-61
2023/08/03 07:39:41;;;;;;;;;;;;;;;;;;5046605;28;20263;-61
2023/08/03 07:42:07;;;;;;;;;;;;;;;;;;5052306;28;19935;-61
2023/08/03 07:44:33;;;;;;;;;;;;;;;;;;5050596;28;19959;-61
2023/08/03 07:46:59;;;;;;;;;;;;;;;;;;5042587;28;19930;-61
2023/08/03 07:49:25;;;;;;;;;;;;;;;;;;5046541;28;20007;-61
2023/08/03 07:51:51;;;;;;;;;;;;;;;;;;5046800;28;20389;-61
2023/08/03 07:54:17;;;;;;;;;;;;;;;;;;5049073;28;19974;-61
2023/08/03 07:56:43;;;;;;;;;;;;;;;;;;5046079;28;19974;-61
2023/08/03 07:59:10;;;;;;;;;;;;;;;;;;5045996;28;19936;-61
2023/08/03 08:01:36;;;;;;;;;;;;;;;;;;5048979;28;19925;-61
2023/08/03 08:04:02;;;;;;;;;;;;;;;;;;5030032;28;20293;-61
2023/08/03 08:06:28;;;;;;;;;;;;;;;;;;5049320;28;19958;-61
2023/08/03 08:08:54;;;;;;;;;;;;;;;;;;5046788;28;20420;-61
2023/08/03 08:11:20;;;;;;;;;;;;;;;;;;5051987;28;20396;-61
2023/08/03 08:13:46;;;;;;;;;;;;;;;;;;5049778;28;19924;-61
2023/08/03 08:16:12;;;;;;;;;;;;;;;;;;5047039;28;19975;-61
2023/08/03 08:18:38;;;;;;;;;;;;;;;;;;5051778;28;19928;-61
2023/08/03 08:21:04;;;;;;;;;;;;;;;;;;5049571;28;19932;-61
2023/08/03 08:23:29;;;;;;;;;;;;;;;;;;5050114;28;20349;-61
2023/08/03 08:25:55;;;;;;;;;;;;;;;;;;5015852;28;19999;-61
2023/08/03 08:28:21;;;;;;;;;;;;;;;;;;5049303;28;19924;-61
2023/08/03 08:30:47;;;;;;;;;;;;;;;;;;5048068;28;20341;-61
2023/08/03 08:33:13;;;;;;;;;;;;;;;;;;5046608;28;19928;-61
2023/08/03 08:35:39;;;;;;;;;;;;;;;;;;5049415;28;19920;-61
2023/08/03 08:38:05;;;;;;;;;;;;;;;;;;5051723;28;19924;-61
2023/08/03 08:40:31;;;;;;;;;;;;;;;;;;5037198;28;19932;-61
2023/08/03 08:42:57;;;;;;;;;;;;;;;;;;5014787;28;19921;-61
2023/08/03 08:45:23;;;;;;;;;;;;;;;;;;5029123;28;19955;-61
2023/08/03 08:47:49;;;;;;;;;;;;;;;;;;5046149;28;19925;-62
2023/08/03 08:50:15;;;;;;;;;;;;;;;;;;5042382;28;19929;-61
2023/08/03 08:52:40;;;;;;;;;;;;;;;;;;5050258;28;20134;-61
2023/08/03 08:55:06;;;;;;;;;;;;;;;;;;5047353;28;19921;-61
2023/08/03 08:57:32;;;;;;;;;;;;;;;;;;5050795;28;19924;-61
2023/08/03 08:59:59;;;;;;;;;;;;;;;;;;5048931;28;20263;-61
2023/08/03 09:02:25;;;;;;;;;;;;;;;;;;5047752;28;19956;-62
2023/08/03 09:04:51;;;;;;;;;;;;;;;;;;5028296;28;19979;-61
2023/08/03 09:07:17;;;;;;;;;;;;;;;;;;5047301;28;20297;-61
2023/08/03 09:09:43;;;;;;;;;;;;;;;;;;5048724;28;19925;-61
2023/08/03 09:12:09;;;;;;;;;;;;;;;;;;5048939;28;19927;-61
2023/08/03 09:14:35;;;;;;;;;;;;;;;;;;5030336;28;19932;-61
2023/08/03 09:17:01;;;;;;;;;;;;;;;;;;5047089;28;19932;-62
2023/08/03 09:19:27;;;;;;;;;;;;;;;;;;5045095;28;19967;-64
2023/08/03 09:21:53;;;;;;;;;;;;;;;;;;5043705;28;19927;-64
2023/08/03 09:24:19;;;;;;;;;;;;;;;;;;5047639;28;19933;-64
2023/08/03 09:26:44;;;;;;;;;;;;;;;;;;5039541;28;19944;-64
2023/08/03 09:29:10;;;;;;;;;;;;;;;;;;5040596;28;19924;-64
2023/08/03 09:31:36;;;;;;;;;;;;;;;;;;5037113;28;19928;-64
2023/08/03 09:34:02;;;;;;;;;;;;;;;;;;5052376;28;19972;-64
2023/08/03 09:36:28;;;;;;;;;;;;;;;;;;5052844;28;20403;-64
2023/08/03 09:38:54;;;;;;;;;;;;;;;;;;5052810;28;19924;-64
2023/08/03 09:41:20;;;;;;;;;;;;;;;;;;5054975;28;19921;-64
2023/08/03 09:43:48;;;;;;;;;;;;;;;;;;5054698;28;19932;-64
2023/08/03 09:46:14;;;;;;;;;;;;;;;;;;5055040;28;19928;-64
2023/08/03 09:48:40;;;;;;;;;;;;;;;;;;5054639;28;20070;-64
2023/08/03 09:51:06;;;;;;;;;;;;;;;;;;5054663;28;20466;-64
2023/08/03 09:53:32;;;;;;;;;;;;;;;;;;5053467;28;19971;-64
2023/08/03 09:55:58;;;;;;;;;;;;;;;;;;5051968;28;19925;-64
2023/08/03 09:58:24;;;;;;;;;;;;;;;;;;5053713;28;19927;-65
2023/08/03 10:00:50;;;;;;;;;;;;;;;;;;5035896;28;19925;-66
2023/08/03 10:03:18;;;;;;;;;;;;;;;;;;5036194;28;20400;-64
2023/08/03 10:05:44;;;;;;;;;;;;;;;;;;5053831;28;19947;-64
2023/08/03 10:08:10;;;;;;;;;;;;;;;;;;5054116;28;20529;-64
2023/08/03 10:10:36;;;;;;;;;;;;;;;;;;5054278;28;20310;-64
2023/08/03 10:13:02;;;;;;;;;;;;;;;;;;5046098;28;19927;-64
2023/08/03 10:15:28;;;;;;;;;;;;;;;;;;5016540;28;19925;-64
2023/08/03 10:17:54;;;;;;;;;;;;;;;;;;5051998;28;19927;-64
2023/08/03 10:20:20;;;;;;;;;;;;;;;;;;5040076;28;20366;-64
2023/08/03 10:22:45;;;;;;;;;;;;;;;;;;5016779;28;19921;-64
2023/08/03 10:25:14;;;;;;;;;;;;;;;;;;5021677;28;21384;-64
2023/08/03 10:27:40;;;;;;;;;;;;;;;;;;5053848;28;20020;-64
2023/08/03 10:30:06;;;;;;;;;;;;;;;;;;5054008;28;19992;-64
2023/08/03 10:32:31;;;;;;;;;;;;;;;;;;5053745;28;20019;-64
2023/08/03 10:34:59;;;;;;;;;;;;;;;;;;5033753;28;20308;-64
2023/08/03 10:37:25;;;;;;;;;;;;;;;;;;5053870;28;19921;-64
2023/08/03 10:39:52;;;;;;;;;;;;;;;;;;5053849;28;19925;-64
2023/08/03 10:42:18;;;;;;;;;;;;;;;;;;5048888;28;20421;-66
2023/08/03 10:44:44;;;;;;;;;;;;;;;;;;5046116;28;19921;-66
2023/08/03 10:47:10;;;;;;;;;;;;;;;;;;5048325;28;19932;-66
2023/08/03 10:49:36;;;;;;;;;;;;;;;;;;5032142;28;19961;-66
2023/08/03 10:52:02;;;;;;;;;;;;;;;;;;5052637;28;19931;-66
2023/08/03 10:54:28;;;;;;;;;;;;;;;;;;5049588;28;20429;-66
2023/08/03 10:56:54;;;;;;;;;;;;;;;;;;5027304;28;19924;-66
2023/08/03 10:59:19;;;;;;;;;;;;;;;;;;5047702;28;19921;-67
2023/08/03 11:01:45;;;;;;;;;;;;;;;;;;5035002;28;19921;-67
2023/08/03 11:04:11;;;;;;;;;;;;;;;;;;5041625;28;19955;-67
2023/08/03 11:06:37;;;;;;;;;;;;;;;;;;5047475;28;19931;-68
2023/08/03 11:09:04;;;;;;;;;;;;;;;;;;5046065;28;19939;-67
2023/08/03 11:11:34;;;;;;;;;;;;;;;;;;5050818;28;20456;-68
2023/08/03 11:13:59;;;;;;;;;;;;;;;;;;5041861;28;19977;-67
2023/08/03 11:16:25;;;;;;;;;;;;;;;;;;5044520;28;19925;-68
2023/08/03 11:18:51;;;;;;;;;;;;;;;;;;5050755;28;19921;-67
2023/08/03 11:21:17;;;;;;;;;;;;;;;;;;5047797;28;20019;-67
2023/08/03 11:23:43;;;;;;;;;;;;;;;;;;5051140;28;19966;-67
2023/08/03 11:26:09;;;;;;;;;;;;;;;;;;5034759;28;20266;-67
2023/08/03 11:28:37;;;;;;;;;;;;;;;;;;5052984;28;19931;-67
2023/08/03 11:31:03;;;;;;;;;;;;;;;;;;5028352;28;19921;-67
2023/08/03 11:33:34;;;;;;;;;;;;;;;;;;5051710;28;19970;-67
2023/08/03 11:36:00;;;;;;;;;;;;;;;;;;5029761;28;20390;-67
2023/08/03 11:38:25;;;;;;;;;;;;;;;;;;5052954;28;19928;-67
2023/08/03 11:40:51;;;;;;;;;;;;;;;;;;5050600;28;19921;-67
2023/08/03 11:43:19;;;;;;;;;;;;;;;;;;5044318;28;20048;-67
2023/08/03 11:45:45;;;;;;;;;;;;;;;;;;5049343;28;19928;-67
2023/08/03 11:48:11;;;;;;;;;;;;;;;;;;5048796;28;19924;-67
2023/08/03 11:50:37;;;;;;;;;;;;;;;;;;5029503;28;20652;-67
2023/08/03 11:53:02;;;;;;;;;;;;;;;;;;5033294;28;20019;-67
2023/08/03 11:55:30;;;;;;;;;;;;;;;;;;5051095;28;19925;-67
2023/08/03 11:58:08;;;;;;;;;;;;;;;;;;5049928;28;19931;-67
2023/08/03 12:00:34;;;;;;;;;;;;;;;;;;5048958;28;19924;-67
2023/08/03 12:03:00;;;;;;;;;;;;;;;;;;5053553;28;19944;-67
2023/08/03 12:05:26;;;;;;;;;;;;;;;;;;5048625;28;20415;-67
2023/08/03 12:07:52;;;;;;;;;;;;;;;;;;5051784;28;19927;-67
2023/08/03 12:10:18;;;;;;;;;;;;;;;;;;5050458;28;19925;-67
2023/08/03 12:12:44;;;;;;;;;;;;;;;;;;5050845;28;19921;-67
2023/08/03 12:15:10;;;;;;;;;;;;;;;;;;5048852;28;19925;-67
2023/08/03 12:17:36;;;;;;;;;;;;;;;;;;5051080;28;19921;-67
2023/08/03 12:20:02;;;;;;;;;;;;;;;;;;5047460;28;20306;-67
2023/08/03 12:22:28;;;;;;;;;;;;;;;;;;5050994;28;20338;-67
2023/08/03 12:24:54;;;;;;;;;;;;;;;;;;5032916;28;19970;-67
2023/08/03 12:27:20;;;;;;;;;;;;;;;;;;5031254;28;20012;-67
2023/08/03 12:29:45;;;;;;;;;;;;;;;;;;5033462;28;19924;-67
2023/08/03 12:32:12;;;;;;;;;;;;;;;;;;5051704;28;19927;-67
2023/08/03 12:34:37;;;;;;;;;;;;;;;;;;5046960;28;19970;-67
2023/08/03 12:37:03;;;;;;;;;;;;;;;;;;5044808;28;20537;-67
2023/08/03 12:39:29;;;;;;;;;;;;;;;;;;5031383;28;19971;-67
2023/08/03 12:41:55;;;;;;;;;;;;;;;;;;5046884;28;19925;-67
2023/08/03 12:44:21;;;;;;;;;;;;;;;;;;5049188;28;20321;-67
2023/08/03 12:46:47;;;;;;;;;;;;;;;;;;5045922;28;20420;-67
2023/08/03 12:49:13;;;;;;;;;;;;;;;;;;5050638;28;20266;-67
2023/08/03 12:51:39;;;;;;;;;;;;;;;;;;5049269;28;19933;-67
2023/08/03 12:54:05;;;;;;;;;;;;;;;;;;5049264;28;19967;-67
2023/08/03 12:56:31;;;;;;;;;;;;;;;;;;5046524;28;19924;-67
2023/08/03 12:58:57;;;;;;;;;;;;;;;;;;5046157;28;19921;-67
2023/08/03 13:01:23;;;;;;;;;;;;;;;;;;5050646;28;20004;-67
2023/08/03 13:03:49;;;;;;;;;;;;;;;;;;5051036;28;20050;-67
2023/08/03 13:06:15;;;;;;;;;;;;;;;;;;5055322;28;19921;-66
2023/08/03 13:08:41;;;;;;;;;;;;;;;;;;5048266;28;20581;-67
2023/08/03 13:11:06;;;;;;;;;;;;;;;;;;5046276;28;19970;-67
2023/08/03 13:13:32;;;;;;;;;;;;;;;;;;5045264;28;20297;-67
2023/08/03 13:15:58;;;;;;;;;;;;;;;;;;5049446;28;19924;-67
2023/08/03 13:18:26;;;;;;;;;;;;;;;;;;5033028;28;20511;-67
2023/08/03 13:20:51;;;;;;;;;;;;;;;;;;5049326;28;19924;-68
2023/08/03 13:23:17;;;;;;;;;;;;;;;;;;5052174;28;19928;-67
2023/08/03 13:25:43;;;;;;;;;;;;;;;;;;5050472;28;20348;-67
2023/08/03 13:28:09;;;;;;;;;;;;;;;;;;5035564;28;19929;-67
2023/08/03 13:30:35;;;;;;;;;;;;;;;;;;5051039;28;19935;-67
2023/08/03 13:33:01;;;;;;;;;;;;;;;;;;5050835;28;19921;-67
2023/08/03 13:35:27;;;;;;;;;;;;;;;;;;5051887;28;20570;-67
2023/08/03 13:37:53;;;;;;;;;;;;;;;;;;5027953;28;19920;-67
2023/08/03 13:40:19;;;;;;;;;;;;;;;;;;5049805;28;19925;-67
2023/08/03 13:42:45;;;;;;;;;;;;;;;;;;5049450;28;19928;-68
2023/08/03 13:45:11;;;;;;;;;;;;;;;;;;5048059;28;20276;-67
2023/08/03 13:47:37;;;;;;;;;;;;;;;;;;5048624;28;19955;-67
2023/08/03 13:50:03;;;;;;;;;;;;;;;;;;5047916;28;19939;-67
2023/08/03 13:52:29;;;;;;;;;;;;;;;;;;5053740;28;19936;-67
2023/08/03 13:54:54;;;;;;;;;;;;;;;;;;5052942;28;20378;-67
2023/08/03 13:57:20;;;;;;;;;;;;;;;;;;5044778;28;20016;-67
2023/08/03 13:59:46;;;;;;;;;;;;;;;;;;5053484;28;19924;-68
2023/08/03 14:02:12;;;;;;;;;;;;;;;;;;5033900;28;19925;-68
2023/08/03 14:04:38;;;;;;;;;;;;;;;;;;5052838;28;19929;-68
2023/08/03 14:07:04;;;;;;;;;;;;;;;;;;5028007;28;19932;-67
2023/08/03 14:09:30;;;;;;;;;;;;;;;;;;5047661;28;19968;-67
2023/08/03 14:11:56;;;;;;;;;;;;;;;;;;5049461;28;19928;-67
2023/08/03 14:14:22;;;;;;;;;;;;;;;;;;5053275;28;20286;-67
2023/08/03 14:16:48;;;;;;;;;;;;;;;;;;5051216;28;21564;-67
2023/08/03 14:19:14;;;;;;;;;;;;;;;;;;5052982;28;20386;-67
2023/08/03 14:21:40;;;;;;;;;;;;;;;;;;5052477;28;19924;-67
2023/08/03 14:24:06;;;;;;;;;;;;;;;;;;5052547;28;19924;-67
2023/08/03 14:26:32;;;;;;;;;;;;;;;;;;5052998;28;20286;-67
2023/08/03 14:28:58;;;;;;;;;;;;;;;;;;5030986;28;20685;-68
2023/08/03 14:31:24;;;;;;;;;;;;;;;;;;5050464;28;19969;-67
2023/08/03 14:33:50;;;;;;;;;;;;;;;;;;5041286;28;19956;-67
2023/08/03 14:36:16;;;;;;;;;;;;;;;;;;5053666;28;19927;-67
2023/08/03 14:38:42;;;;;;;;;;;;;;;;;;5028405;28;19920;-67
2023/08/03 14:41:08;;;;;;;;;;;;;;;;;;5050168;28;20293;-67
2023/08/03 14:43:34;;;;;;;;;;;;;;;;;;5051843;28;20007;-67
2023/08/03 14:45:59;;;;;;;;;;;;;;;;;;5031624;28;19921;-68
2023/08/03 14:48:25;;;;;;;;;;;;;;;;;;5052472;28;20043;-67
2023/08/03 14:50:52;;;;;;;;;;;;;;;;;;5049404;28;19932;-67
2023/08/03 14:53:18;;;;;;;;;;;;;;;;;;5051449;28;19964;-67
2023/08/03 14:55:44;;;;;;;;;;;;;;;;;;5052316;28;20325;-67
2023/08/03 14:58:10;;;;;;;;;;;;;;;;;;5049834;28;20004;-67
2023/08/03 15:00:36;;;;;;;;;;;;;;;;;;5051813;28;19960;-66
2023/08/03 15:03:02;;;;;;;;;;;;;;;;;;5049629;28;19927;-67
2023/08/03 15:05:28;;;;;;;;;;;;;;;;;;5049604;28;20362;-67
2023/08/03 15:07:54;;;;;;;;;;;;;;;;;;5049845;28;19974;-66
2023/08/03 15:10:20;;;;;;;;;;;;;;;;;;5050453;28;20267;-66
2023/08/03 15:12:45;;;;;;;;;;;;;;;;;;5044846;28;19963;-67
2023/08/03 15:15:11;;;;;;;;;;;;;;;;;;5047439;28;19959;-67
2023/08/03 15:17:37;;;;;;;;;;;;;;;;;;5032194;28;19929;-67
2023/08/03 15:20:03;;;;;;;;;;;;;;;;;;5051099;28;19947;-67
2023/08/03 15:22:30;;;;;;;;;;;;;;;;;;5041108;28;19920;-67
2023/08/03 15:24:56;;;;;;;;;;;;;;;;;;5034739;28;19921;-67
2023/08/03 15:27:22;;;;;;;;;;;;;;;;;;5049648;28;19925;-66
2023/08/03 15:29:48;;;;;;;;;;;;;;;;;;5047192;28;19944;-67
2023/08/03 15:32:14;;;;;;;;;;;;;;;;;;5051180;28;20011;-66
2023/08/03 15:34:40;;;;;;;;;;;;;;;;;;5050493;28;20378;-67
2023/08/03 15:37:05;;;;;;;;;;;;;;;;;;5051583;28;19928;-67
2023/08/03 15:39:31;;;;;;;;;;;;;;;;;;5029364;28;19921;-67
2023/08/03 15:41:57;;;;;;;;;;;;;;;;;;5049894;28;19924;-68
2023/08/03 15:44:23;;;;;;;;;;;;;;;;;;5030253;28;19948;-67
2023/08/03 15:46:49;;;;;;;;;;;;;;;;;;5045014;28;20342;-66
2023/08/03 15:49:15;;;;;;;;;;;;;;;;;;5040770;28;19940;-66
2023/08/03 15:51:41;;;;;;;;;;;;;;;;;;5044429;28;19924;-66
2023/08/03 15:54:07;;;;;;;;;;;;;;;;;;5050587;28;20498;-66
2023/08/03 15:56:33;;;;;;;;;;;;;;;;;;5039043;28;19921;-67
2023/08/03 15:58:59;;;;;;;;;;;;;;;;;;5050664;28;20335;-67
2023/08/03 16:01:24;;;;;;;;;;;;;;;;;;5050481;28;19944;-66
2023/08/03 16:03:51;;;;;;;;;;;;;;;;;;5042653;28;19921;-66
2023/08/03 16:06:16;;;;;;;;;;;;;;;;;;5044613;28;19921;-66
2023/08/03 16:08:42;;;;;;;;;;;;;;;;;;5045316;28;19929;-67
2023/08/03 16:11:08;;;;;;;;;;;;;;;;;;5049830;28;20270;-66
2023/08/03 16:13:37;;;;;;;;;;;;;;;;;;5045844;28;20007;-67
2023/08/03 16:16:03;;;;;;;;;;;;;;;;;;5044532;28;19920;-66
2023/08/03 16:18:28;;;;;;;;;;;;;;;;;;5014917;28;19928;-66
2023/08/03 16:20:55;;;;;;;;;;;;;;;;;;5029204;28;20000;-67
2023/08/03 16:23:20;;;;;;;;;;;;;;;;;;5049445;28;19926;-67
2023/08/03 16:25:46;;;;;;;;;;;;;;;;;;5051935;28;19927;-67
2023/08/03 16:28:12;;;;;;;;;;;;;;;;;;5051656;28;20271;-66
2023/08/03 16:30:38;;;;;;;;;;;;;;;;;;5049806;28;19932;-66
2023/08/03 16:33:04;;;;;;;;;;;;;;;;;;5046769;28;19980;-66
2023/08/03 16:35:30;;;;;;;;;;;;;;;;;;5045354;28;19925;-67
2023/08/03 16:37:56;;;;;;;;;;;;;;;;;;5049153;28;19951;-66